sensor_id;sensor_type;location;lat;lon;timestamp;P1;durP1;ratioP1;P2;durP2;ratioP2
7529;SDS011;3806;52.270;10.544;2024-01-07T00:02:16;8.02;;;5.15;;
7529;SDS011;3806;52.270;10.544;2024-01-07T00:04:41;9.20;;;4.93;;
7529;SDS011;3806;52.270;10.544;2024-01-07T00:07:07;11.10;;;5.30;;
7529;SDS011;3806;52.270;10.544;2024-01-07T00:09:32;9.77;;;4.40;;
7529;SDS011;3806;52.270;10.544;2024-01-07T00:11:58;6.93;;;4.15;;
7529;SDS011;3806;52.270;10.544;2024-01-07T00:14:23;9.55;;;4.82;;
7529;SDS011;3806;52.270;10.544;2024-01-07T00:16:49;10.45;;;5.35;;
7529;SDS011;3806;52.270;10.544;2024-01-07T00:19:15;9.40;;;5.82;;
7529;SDS011;3806;52.270;10.544;2024-01-07T00:21:41;9.85;;;5.18;;
7529;SDS011;3806;52.270;10.544;2024-01-07T00:24:06;8.50;;;5.25;;
7529;SDS011;3806;52.270;10.544;2024-01-07T00:26:32;6.22;;;4.05;;
7529;SDS011;3806;52.270;10.544;2024-01-07T00:28:57;10.57;;;4.60;;
7529;SDS011;3806;52.270;10.544;2024-01-07T00:31:22;9.10;;;5.30;;
7529;SDS011;3806;52.270;10.544;2024-01-07T00:33:48;12.02;;;5.18;;
7529;SDS011;3806;52.270;10.544;2024-01-07T00:36:14;7.20;;;4.45;;
7529;SDS011;3806;52.270;10.544;2024-01-07T00:38:39;9.13;;;4.35;;
7529;SDS011;3806;52.270;10.544;2024-01-07T00:41:05;7.90;;;4.30;;
7529;SDS011;3806;52.270;10.544;2024-01-07T00:43:30;11.77;;;4.90;;
7529;SDS011;3806;52.270;10.544;2024-01-07T00:45:56;9.25;;;5.55;;
7529;SDS011;3806;52.270;10.544;2024-01-07T00:48:21;6.43;;;3.95;;
7529;SDS011;3806;52.270;10.544;2024-01-07T00:50:47;9.95;;;5.30;;
7529;SDS011;3806;52.270;10.544;2024-01-07T00:53:13;7.95;;;4.05;;
7529;SDS011;3806;52.270;10.544;2024-01-07T00:55:38;11.55;;;5.57;;
7529;SDS011;3806;52.270;10.544;2024-01-07T00:58:03;9.00;;;4.20;;
7529;SDS011;3806;52.270;10.544;2024-01-07T01:00:29;9.32;;;5.05;;
7529;SDS011;3806;52.270;10.544;2024-01-07T01:02:55;7.18;;;4.57;;
7529;SDS011;3806;52.270;10.544;2024-01-07T01:05:20;10.07;;;5.15;;
7529;SDS011;3806;52.270;10.544;2024-01-07T01:07:46;10.73;;;4.65;;
7529;SDS011;3806;52.270;10.544;2024-01-07T01:10:12;11.93;;;4.43;;
7529;SDS011;3806;52.270;10.544;2024-01-07T01:12:39;9.35;;;4.07;;
7529;SDS011;3806;52.270;10.544;2024-01-07T01:15:05;6.22;;;3.75;;
7529;SDS011;3806;52.270;10.544;2024-01-07T01:17:31;6.03;;;3.60;;
7529;SDS011;3806;52.270;10.544;2024-01-07T01:19:56;5.65;;;3.67;;
7529;SDS011;3806;52.270;10.544;2024-01-07T01:22:22;6.55;;;3.70;;
7529;SDS011;3806;52.270;10.544;2024-01-07T01:24:47;6.00;;;3.17;;
7529;SDS011;3806;52.270;10.544;2024-01-07T01:27:14;5.82;;;4.07;;
7529;SDS011;3806;52.270;10.544;2024-01-07T01:29:40;7.95;;;3.58;;
7529;SDS011;3806;52.270;10.544;2024-01-07T01:32:06;3.35;;;2.67;;
7529;SDS011;3806;52.270;10.544;2024-01-07T01:34:31;5.43;;;2.63;;
7529;SDS011;3806;52.270;10.544;2024-01-07T01:36:57;5.95;;;3.30;;
7529;SDS011;3806;52.270;10.544;2024-01-07T01:39:23;5.93;;;3.63;;
7529;SDS011;3806;52.270;10.544;2024-01-07T01:41:48;4.18;;;3.10;;
7529;SDS011;3806;52.270;10.544;2024-01-07T01:44:14;4.85;;;3.13;;
7529;SDS011;3806;52.270;10.544;2024-01-07T01:46:39;8.63;;;3.63;;
7529;SDS011;3806;52.270;10.544;2024-01-07T01:49:06;7.45;;;3.67;;
7529;SDS011;3806;52.270;10.544;2024-01-07T01:51:32;6.03;;;3.35;;
7529;SDS011;3806;52.270;10.544;2024-01-07T01:53:57;5.55;;;3.63;;
7529;SDS011;3806;52.270;10.544;2024-01-07T01:56:25;7.40;;;4.45;;
7529;SDS011;3806;52.270;10.544;2024-01-07T01:58:52;6.78;;;4.15;;
7529;SDS011;3806;52.270;10.544;2024-01-07T02:01:18;7.47;;;3.72;;
7529;SDS011;3806;52.270;10.544;2024-01-07T02:03:44;5.43;;;3.35;;
7529;SDS011;3806;52.270;10.544;2024-01-07T02:06:10;5.82;;;3.60;;
7529;SDS011;3806;52.270;10.544;2024-01-07T02:08:37;6.40;;;3.63;;
7529;SDS011;3806;52.270;10.544;2024-01-07T02:13:41;4.72;;;3.00;;
7529;SDS011;3806;52.270;10.544;2024-01-07T02:16:07;6.68;;;3.50;;
7529;SDS011;3806;52.270;10.544;2024-01-07T02:18:32;7.47;;;4.40;;
7529;SDS011;3806;52.270;10.544;2024-01-07T02:20:58;7.03;;;4.13;;
7529;SDS011;3806;52.270;10.544;2024-01-07T02:23:24;5.32;;;3.67;;
7529;SDS011;3806;52.270;10.544;2024-01-07T02:25:49;7.80;;;3.20;;
7529;SDS011;3806;52.270;10.544;2024-01-07T02:28:15;6.38;;;4.20;;
7529;SDS011;3806;52.270;10.544;2024-01-07T02:30:40;7.25;;;3.78;;
7529;SDS011;3806;52.270;10.544;2024-01-07T02:33:06;6.45;;;3.63;;
7529;SDS011;3806;52.270;10.544;2024-01-07T02:35:31;7.95;;;4.05;;
7529;SDS011;3806;52.270;10.544;2024-01-07T02:37:57;4.72;;;3.22;;
7529;SDS011;3806;52.270;10.544;2024-01-07T02:40:22;5.97;;;3.15;;
7529;SDS011;3806;52.270;10.544;2024-01-07T02:42:48;4.88;;;3.40;;
7529;SDS011;3806;52.270;10.544;2024-01-07T02:45:13;5.05;;;3.05;;
7529;SDS011;3806;52.270;10.544;2024-01-07T02:47:39;6.43;;;3.88;;
7529;SDS011;3806;52.270;10.544;2024-01-07T02:50:04;8.52;;;3.30;;
7529;SDS011;3806;52.270;10.544;2024-01-07T02:52:30;6.15;;;3.38;;
7529;SDS011;3806;52.270;10.544;2024-01-07T02:54:56;5.60;;;3.60;;
7529;SDS011;3806;52.270;10.544;2024-01-07T02:57:22;5.15;;;3.22;;
7529;SDS011;3806;52.270;10.544;2024-01-07T02:59:48;5.80;;;2.97;;
7529;SDS011;3806;52.270;10.544;2024-01-07T03:02:13;3.85;;;2.80;;
7529;SDS011;3806;52.270;10.544;2024-01-07T03:04:39;5.78;;;3.50;;
7529;SDS011;3806;52.270;10.544;2024-01-07T03:07:04;5.75;;;3.25;;
7529;SDS011;3806;52.270;10.544;2024-01-07T03:09:29;6.32;;;3.17;;
7529;SDS011;3806;52.270;10.544;2024-01-07T03:11:55;6.20;;;3.10;;
7529;SDS011;3806;52.270;10.544;2024-01-07T03:14:20;4.53;;;2.58;;
7529;SDS011;3806;52.270;10.544;2024-01-07T03:16:46;5.20;;;2.83;;
7529;SDS011;3806;52.270;10.544;2024-01-07T03:19:12;3.58;;;2.92;;
7529;SDS011;3806;52.270;10.544;2024-01-07T03:21:37;4.28;;;2.92;;
7529;SDS011;3806;52.270;10.544;2024-01-07T03:24:03;6.53;;;2.90;;
7529;SDS011;3806;52.270;10.544;2024-01-07T03:26:29;3.65;;;2.17;;
7529;SDS011;3806;52.270;10.544;2024-01-07T03:28:57;5.40;;;3.35;;
7529;SDS011;3806;52.270;10.544;2024-01-07T03:31:24;4.63;;;2.55;;
7529;SDS011;3806;52.270;10.544;2024-01-07T03:33:50;3.83;;;2.30;;
7529;SDS011;3806;52.270;10.544;2024-01-07T03:36:16;3.10;;;2.20;;
7529;SDS011;3806;52.270;10.544;2024-01-07T03:38:41;3.78;;;2.15;;
7529;SDS011;3806;52.270;10.544;2024-01-07T03:41:07;2.70;;;2.03;;
7529;SDS011;3806;52.270;10.544;2024-01-07T03:43:32;6.90;;;2.17;;
7529;SDS011;3806;52.270;10.544;2024-01-07T03:45:58;2.83;;;1.85;;
7529;SDS011;3806;52.270;10.544;2024-01-07T03:48:24;2.65;;;2.08;;
7529;SDS011;3806;52.270;10.544;2024-01-07T03:50:49;3.85;;;1.83;;
7529;SDS011;3806;52.270;10.544;2024-01-07T03:53:15;5.35;;;2.28;;
7529;SDS011;3806;52.270;10.544;2024-01-07T03:55:41;1.80;;;1.48;;
7529;SDS011;3806;52.270;10.544;2024-01-07T03:58:06;1.77;;;1.45;;
7529;SDS011;3806;52.270;10.544;2024-01-07T04:00:32;4.55;;;1.85;;
7529;SDS011;3806;52.270;10.544;2024-01-07T04:02:58;6.15;;;2.00;;
7529;SDS011;3806;52.270;10.544;2024-01-07T04:05:24;3.10;;;1.63;;
7529;SDS011;3806;52.270;10.544;2024-01-07T04:07:49;4.07;;;1.50;;
7529;SDS011;3806;52.270;10.544;2024-01-07T04:10:16;2.15;;;1.92;;
7529;SDS011;3806;52.270;10.544;2024-01-07T04:12:41;4.40;;;1.60;;
7529;SDS011;3806;52.270;10.544;2024-01-07T04:15:07;1.48;;;1.20;;
7529;SDS011;3806;52.270;10.544;2024-01-07T04:17:33;2.08;;;1.30;;
7529;SDS011;3806;52.270;10.544;2024-01-07T04:19:58;2.42;;;1.33;;
7529;SDS011;3806;52.270;10.544;2024-01-07T04:22:24;3.67;;;1.50;;
7529;SDS011;3806;52.270;10.544;2024-01-07T04:24:49;2.42;;;1.48;;
7529;SDS011;3806;52.270;10.544;2024-01-07T04:27:15;1.42;;;1.25;;
7529;SDS011;3806;52.270;10.544;2024-01-07T04:29:40;2.60;;;1.67;;
7529;SDS011;3806;52.270;10.544;2024-01-07T04:32:06;1.48;;;1.10;;
7529;SDS011;3806;52.270;10.544;2024-01-07T04:34:31;1.67;;;1.00;;
7529;SDS011;3806;52.270;10.544;2024-01-07T04:36:57;2.72;;;1.58;;
7529;SDS011;3806;52.270;10.544;2024-01-07T04:39:22;2.33;;;1.45;;
7529;SDS011;3806;52.270;10.544;2024-01-07T04:41:48;2.10;;;1.52;;
7529;SDS011;3806;52.270;10.544;2024-01-07T04:44:13;1.98;;;1.42;;
7529;SDS011;3806;52.270;10.544;2024-01-07T04:46:39;2.13;;;1.42;;
7529;SDS011;3806;52.270;10.544;2024-01-07T04:49:05;2.03;;;1.40;;
7529;SDS011;3806;52.270;10.544;2024-01-07T04:51:31;2.67;;;1.40;;
7529;SDS011;3806;52.270;10.544;2024-01-07T04:53:57;3.17;;;1.00;;
7529;SDS011;3806;52.270;10.544;2024-01-07T04:56:23;5.40;;;1.50;;
7529;SDS011;3806;52.270;10.544;2024-01-07T04:58:49;2.50;;;1.73;;
7529;SDS011;3806;52.270;10.544;2024-01-07T05:01:14;2.03;;;1.30;;
7529;SDS011;3806;52.270;10.544;2024-01-07T05:03:40;3.35;;;1.60;;
7529;SDS011;3806;52.270;10.544;2024-01-07T05:06:09;3.58;;;2.00;;
7529;SDS011;3806;52.270;10.544;2024-01-07T05:08:35;3.10;;;1.48;;
7529;SDS011;3806;52.270;10.544;2024-01-07T05:11:05;1.67;;;1.40;;
7529;SDS011;3806;52.270;10.544;2024-01-07T05:13:31;2.22;;;1.60;;
7529;SDS011;3806;52.270;10.544;2024-01-07T05:15:56;4.35;;;1.48;;
7529;SDS011;3806;52.270;10.544;2024-01-07T05:18:22;4.78;;;1.95;;
7529;SDS011;3806;52.270;10.544;2024-01-07T05:20:48;2.58;;;1.40;;
7529;SDS011;3806;52.270;10.544;2024-01-07T05:23:14;4.97;;;1.73;;
7529;SDS011;3806;52.270;10.544;2024-01-07T05:25:41;3.97;;;1.67;;
7529;SDS011;3806;52.270;10.544;2024-01-07T05:28:11;3.10;;;1.67;;
7529;SDS011;3806;52.270;10.544;2024-01-07T05:30:37;4.93;;;1.60;;
7529;SDS011;3806;52.270;10.544;2024-01-07T05:33:03;1.98;;;1.55;;
7529;SDS011;3806;52.270;10.544;2024-01-07T05:35:29;2.03;;;1.83;;
7529;SDS011;3806;52.270;10.544;2024-01-07T05:37:55;2.83;;;1.63;;
7529;SDS011;3806;52.270;10.544;2024-01-07T05:40:21;3.13;;;1.85;;
7529;SDS011;3806;52.270;10.544;2024-01-07T05:42:46;2.65;;;1.48;;
7529;SDS011;3806;52.270;10.544;2024-01-07T05:45:12;1.90;;;1.40;;
7529;SDS011;3806;52.270;10.544;2024-01-07T05:47:37;4.75;;;1.95;;
7529;SDS011;3806;52.270;10.544;2024-01-07T05:50:03;1.73;;;1.35;;
7529;SDS011;3806;52.270;10.544;2024-01-07T05:52:29;3.00;;;1.83;;
7529;SDS011;3806;52.270;10.544;2024-01-07T05:54:55;2.13;;;1.50;;
7529;SDS011;3806;52.270;10.544;2024-01-07T05:57:20;3.58;;;2.30;;
7529;SDS011;3806;52.270;10.544;2024-01-07T05:59:46;1.38;;;1.25;;
7529;SDS011;3806;52.270;10.544;2024-01-07T06:02:11;8.60;;;2.85;;
7529;SDS011;3806;52.270;10.544;2024-01-07T06:04:39;1.77;;;1.60;;
7529;SDS011;3806;52.270;10.544;2024-01-07T06:07:05;1.90;;;1.50;;
7529;SDS011;3806;52.270;10.544;2024-01-07T06:09:31;2.63;;;2.42;;
7529;SDS011;3806;52.270;10.544;2024-01-07T06:11:56;3.45;;;1.83;;
7529;SDS011;3806;52.270;10.544;2024-01-07T06:14:22;3.17;;;1.40;;
7529;SDS011;3806;52.270;10.544;2024-01-07T06:16:48;2.65;;;2.05;;
7529;SDS011;3806;52.270;10.544;2024-01-07T06:19:13;4.47;;;2.13;;
7529;SDS011;3806;52.270;10.544;2024-01-07T06:21:41;2.95;;;1.88;;
7529;SDS011;3806;52.270;10.544;2024-01-07T06:24:10;5.03;;;2.38;;
7529;SDS011;3806;52.270;10.544;2024-01-07T06:26:35;3.22;;;2.22;;
7529;SDS011;3806;52.270;10.544;2024-01-07T06:29:01;2.97;;;1.80;;
7529;SDS011;3806;52.270;10.544;2024-01-07T06:31:27;3.67;;;1.75;;
7529;SDS011;3806;52.270;10.544;2024-01-07T06:33:52;2.40;;;1.65;;
7529;SDS011;3806;52.270;10.544;2024-01-07T06:36:20;2.13;;;1.60;;
7529;SDS011;3806;52.270;10.544;2024-01-07T06:38:46;6.55;;;1.90;;
7529;SDS011;3806;52.270;10.544;2024-01-07T06:41:12;2.38;;;2.05;;
7529;SDS011;3806;52.270;10.544;2024-01-07T06:43:37;3.45;;;2.22;;
7529;SDS011;3806;52.270;10.544;2024-01-07T06:46:03;2.83;;;1.70;;
7529;SDS011;3806;52.270;10.544;2024-01-07T06:48:29;3.55;;;2.25;;
7529;SDS011;3806;52.270;10.544;2024-01-07T06:50:55;2.75;;;2.10;;
7529;SDS011;3806;52.270;10.544;2024-01-07T06:53:20;2.47;;;1.92;;
7529;SDS011;3806;52.270;10.544;2024-01-07T06:55:46;2.83;;;2.30;;
7529;SDS011;3806;52.270;10.544;2024-01-07T06:58:12;5.63;;;1.98;;
7529;SDS011;3806;52.270;10.544;2024-01-07T07:00:38;2.95;;;2.10;;
7529;SDS011;3806;52.270;10.544;2024-01-07T07:03:03;4.40;;;2.28;;
7529;SDS011;3806;52.270;10.544;2024-01-07T07:05:30;3.80;;;2.17;;
7529;SDS011;3806;52.270;10.544;2024-01-07T07:07:56;3.10;;;2.63;;
7529;SDS011;3806;52.270;10.544;2024-01-07T07:10:21;3.97;;;3.20;;
7529;SDS011;3806;52.270;10.544;2024-01-07T07:12:47;5.22;;;2.95;;
7529;SDS011;3806;52.270;10.544;2024-01-07T07:15:12;3.42;;;1.95;;
7529;SDS011;3806;52.270;10.544;2024-01-07T07:17:38;2.40;;;1.92;;
7529;SDS011;3806;52.270;10.544;2024-01-07T07:20:05;2.88;;;1.88;;
7529;SDS011;3806;52.270;10.544;2024-01-07T07:22:31;3.03;;;1.90;;
7529;SDS011;3806;52.270;10.544;2024-01-07T07:24:56;2.50;;;1.92;;
7529;SDS011;3806;52.270;10.544;2024-01-07T07:27:22;3.78;;;2.13;;
7529;SDS011;3806;52.270;10.544;2024-01-07T07:29:47;4.88;;;2.35;;
7529;SDS011;3806;52.270;10.544;2024-01-07T07:32:13;3.38;;;2.55;;
7529;SDS011;3806;52.270;10.544;2024-01-07T07:34:38;3.90;;;2.10;;
7529;SDS011;3806;52.270;10.544;2024-01-07T07:37:04;2.53;;;2.17;;
7529;SDS011;3806;52.270;10.544;2024-01-07T07:39:29;3.38;;;1.67;;
7529;SDS011;3806;52.270;10.544;2024-01-07T07:41:55;3.88;;;2.15;;
7529;SDS011;3806;52.270;10.544;2024-01-07T07:44:20;3.38;;;2.40;;
7529;SDS011;3806;52.270;10.544;2024-01-07T07:46:46;2.88;;;1.98;;
7529;SDS011;3806;52.270;10.544;2024-01-07T07:49:11;3.78;;;2.15;;
7529;SDS011;3806;52.270;10.544;2024-01-07T07:51:37;4.55;;;2.20;;
7529;SDS011;3806;52.270;10.544;2024-01-07T07:54:03;5.90;;;2.10;;
7529;SDS011;3806;52.270;10.544;2024-01-07T07:56:29;2.63;;;1.80;;
7529;SDS011;3806;52.270;10.544;2024-01-07T07:58:54;3.65;;;2.25;;
7529;SDS011;3806;52.270;10.544;2024-01-07T08:01:20;3.95;;;2.35;;
7529;SDS011;3806;52.270;10.544;2024-01-07T08:03:45;3.20;;;2.25;;
7529;SDS011;3806;52.270;10.544;2024-01-07T08:06:10;4.55;;;2.58;;
7529;SDS011;3806;52.270;10.544;2024-01-07T08:08:36;2.30;;;1.92;;
7529;SDS011;3806;52.270;10.544;2024-01-07T08:11:02;2.90;;;2.00;;
7529;SDS011;3806;52.270;10.544;2024-01-07T08:13:27;3.75;;;2.03;;
7529;SDS011;3806;52.270;10.544;2024-01-07T08:15:53;3.08;;;2.22;;
7529;SDS011;3806;52.270;10.544;2024-01-07T08:18:18;3.42;;;1.98;;
7529;SDS011;3806;52.270;10.544;2024-01-07T08:20:44;3.45;;;1.98;;
7529;SDS011;3806;52.270;10.544;2024-01-07T08:23:09;2.97;;;1.63;;
7529;SDS011;3806;52.270;10.544;2024-01-07T08:25:35;2.47;;;2.10;;
7529;SDS011;3806;52.270;10.544;2024-01-07T08:28:00;6.38;;;2.22;;
7529;SDS011;3806;52.270;10.544;2024-01-07T08:30:26;3.75;;;2.17;;
7529;SDS011;3806;52.270;10.544;2024-01-07T08:32:51;3.05;;;2.03;;
7529;SDS011;3806;52.270;10.544;2024-01-07T08:35:17;3.63;;;2.53;;
7529;SDS011;3806;52.270;10.544;2024-01-07T08:37:42;3.40;;;2.00;;
7529;SDS011;3806;52.270;10.544;2024-01-07T08:40:09;3.17;;;2.03;;
7529;SDS011;3806;52.270;10.544;2024-01-07T08:42:35;6.85;;;2.95;;
7529;SDS011;3806;52.270;10.544;2024-01-07T08:45:01;3.35;;;2.03;;
7529;SDS011;3806;52.270;10.544;2024-01-07T08:47:28;3.45;;;2.35;;
7529;SDS011;3806;52.270;10.544;2024-01-07T08:49:56;4.03;;;2.15;;
7529;SDS011;3806;52.270;10.544;2024-01-07T08:52:21;4.13;;;2.28;;
7529;SDS011;3806;52.270;10.544;2024-01-07T08:54:47;3.38;;;2.28;;
7529;SDS011;3806;52.270;10.544;2024-01-07T08:57:12;3.65;;;2.50;;
7529;SDS011;3806;52.270;10.544;2024-01-07T08:59:38;5.07;;;2.67;;
7529;SDS011;3806;52.270;10.544;2024-01-07T09:02:03;4.32;;;3.00;;
7529;SDS011;3806;52.270;10.544;2024-01-07T09:04:30;4.43;;;2.53;;
7529;SDS011;3806;52.270;10.544;2024-01-07T09:06:55;3.47;;;2.38;;
7529;SDS011;3806;52.270;10.544;2024-01-07T09:09:21;7.63;;;2.75;;
7529;SDS011;3806;52.270;10.544;2024-01-07T09:11:46;4.25;;;3.13;;
7529;SDS011;3806;52.270;10.544;2024-01-07T09:14:12;4.07;;;2.45;;
7529;SDS011;3806;52.270;10.544;2024-01-07T09:16:39;5.03;;;3.20;;
7529;SDS011;3806;52.270;10.544;2024-01-07T09:19:05;3.60;;;1.85;;
7529;SDS011;3806;52.270;10.544;2024-01-07T09:21:30;4.95;;;2.72;;
7529;SDS011;3806;52.270;10.544;2024-01-07T09:23:56;3.03;;;2.50;;
7529;SDS011;3806;52.270;10.544;2024-01-07T09:26:21;3.63;;;2.28;;
7529;SDS011;3806;52.270;10.544;2024-01-07T09:28:47;6.30;;;2.65;;
7529;SDS011;3806;52.270;10.544;2024-01-07T09:31:12;3.95;;;2.38;;
7529;SDS011;3806;52.270;10.544;2024-01-07T09:33:38;2.78;;;2.15;;
7529;SDS011;3806;52.270;10.544;2024-01-07T09:36:03;3.05;;;2.17;;
7529;SDS011;3806;52.270;10.544;2024-01-07T09:38:29;3.17;;;2.58;;
7529;SDS011;3806;52.270;10.544;2024-01-07T09:40:54;3.38;;;1.98;;
7529;SDS011;3806;52.270;10.544;2024-01-07T09:43:20;4.80;;;2.00;;
7529;SDS011;3806;52.270;10.544;2024-01-07T09:45:46;4.28;;;2.92;;
7529;SDS011;3806;52.270;10.544;2024-01-07T09:48:15;4.40;;;2.08;;
7529;SDS011;3806;52.270;10.544;2024-01-07T09:50:41;3.20;;;2.38;;
7529;SDS011;3806;52.270;10.544;2024-01-07T09:53:07;4.55;;;2.30;;
7529;SDS011;3806;52.270;10.544;2024-01-07T09:55:40;3.55;;;2.30;;
7529;SDS011;3806;52.270;10.544;2024-01-07T09:58:21;2.00;;;1.83;;
7529;SDS011;3806;52.270;10.544;2024-01-07T10:00:46;3.97;;;2.42;;
7529;SDS011;3806;52.270;10.544;2024-01-07T10:03:12;4.82;;;2.42;;
7529;SDS011;3806;52.270;10.544;2024-01-07T10:05:38;2.92;;;1.95;;
7529;SDS011;3806;52.270;10.544;2024-01-07T10:08:04;2.70;;;1.80;;
7529;SDS011;3806;52.270;10.544;2024-01-07T10:10:31;4.95;;;2.05;;
7529;SDS011;3806;52.270;10.544;2024-01-07T10:12:56;3.35;;;1.98;;
7529;SDS011;3806;52.270;10.544;2024-01-07T10:15:22;5.07;;;2.33;;
7529;SDS011;3806;52.270;10.544;2024-01-07T10:17:48;5.47;;;2.15;;
7529;SDS011;3806;52.270;10.544;2024-01-07T10:20:14;5.72;;;2.30;;
7529;SDS011;3806;52.270;10.544;2024-01-07T10:22:41;3.80;;;2.15;;
7529;SDS011;3806;52.270;10.544;2024-01-07T10:25:14;3.40;;;2.47;;
7529;SDS011;3806;52.270;10.544;2024-01-07T10:27:40;6.22;;;2.22;;
7529;SDS011;3806;52.270;10.544;2024-01-07T10:30:05;2.90;;;1.90;;
7529;SDS011;3806;52.270;10.544;2024-01-07T10:32:31;2.17;;;1.92;;
7529;SDS011;3806;52.270;10.544;2024-01-07T10:35:06;2.58;;;2.15;;
7529;SDS011;3806;52.270;10.544;2024-01-07T10:37:34;4.53;;;1.95;;
7529;SDS011;3806;52.270;10.544;2024-01-07T10:40:00;5.35;;;2.40;;
7529;SDS011;3806;52.270;10.544;2024-01-07T10:42:29;4.15;;;2.10;;
7529;SDS011;3806;52.270;10.544;2024-01-07T10:44:57;4.25;;;1.90;;
7529;SDS011;3806;52.270;10.544;2024-01-07T10:47:23;2.95;;;2.00;;
7529;SDS011;3806;52.270;10.544;2024-01-07T10:49:58;3.92;;;2.22;;
7529;SDS011;3806;52.270;10.544;2024-01-07T10:52:25;4.22;;;2.08;;
7529;SDS011;3806;52.270;10.544;2024-01-07T10:54:53;4.65;;;2.40;;
7529;SDS011;3806;52.270;10.544;2024-01-07T10:57:26;3.22;;;2.05;;
7529;SDS011;3806;52.270;10.544;2024-01-07T11:00:00;1.75;;;1.40;;
7529;SDS011;3806;52.270;10.544;2024-01-07T11:02:31;2.05;;;1.83;;
7529;SDS011;3806;52.270;10.544;2024-01-07T11:05:02;1.92;;;1.55;;
7529;SDS011;3806;52.270;10.544;2024-01-07T11:10:19;6.07;;;1.80;;
7529;SDS011;3806;52.270;10.544;2024-01-07T11:12:57;2.22;;;1.50;;
7529;SDS011;3806;52.270;10.544;2024-01-07T11:18:21;2.78;;;1.70;;
7529;SDS011;3806;52.270;10.544;2024-01-07T11:20:47;2.13;;;1.70;;
7529;SDS011;3806;52.270;10.544;2024-01-07T11:23:25;2.33;;;2.08;;
7529;SDS011;3806;52.270;10.544;2024-01-07T11:25:52;5.35;;;2.40;;
7529;SDS011;3806;52.270;10.544;2024-01-07T11:28:17;6.00;;;2.75;;
7529;SDS011;3806;52.270;10.544;2024-01-07T11:30:44;3.13;;;2.38;;
7529;SDS011;3806;52.270;10.544;2024-01-07T11:33:13;5.90;;;2.38;;
7529;SDS011;3806;52.270;10.544;2024-01-07T11:35:53;2.53;;;1.88;;
7529;SDS011;3806;52.270;10.544;2024-01-07T11:38:21;3.55;;;1.60;;
7529;SDS011;3806;52.270;10.544;2024-01-07T11:40:46;4.22;;;1.45;;
7529;SDS011;3806;52.270;10.544;2024-01-07T11:43:15;3.15;;;2.42;;
7529;SDS011;3806;52.270;10.544;2024-01-07T11:45:40;1.90;;;1.52;;
7529;SDS011;3806;52.270;10.544;2024-01-07T11:48:06;4.68;;;1.80;;
7529;SDS011;3806;52.270;10.544;2024-01-07T11:50:32;2.70;;;2.05;;
7529;SDS011;3806;52.270;10.544;2024-01-07T11:52:57;2.35;;;1.75;;
7529;SDS011;3806;52.270;10.544;2024-01-07T11:55:23;3.13;;;1.90;;
7529;SDS011;3806;52.270;10.544;2024-01-07T11:57:50;2.63;;;2.10;;
7529;SDS011;3806;52.270;10.544;2024-01-07T12:00:17;2.17;;;1.65;;
7529;SDS011;3806;52.270;10.544;2024-01-07T12:02:42;3.10;;;2.25;;
7529;SDS011;3806;52.270;10.544;2024-01-07T12:05:08;3.35;;;1.80;;
7529;SDS011;3806;52.270;10.544;2024-01-07T12:07:34;3.30;;;2.42;;
7529;SDS011;3806;52.270;10.544;2024-01-07T12:10:02;3.35;;;1.70;;
7529;SDS011;3806;52.270;10.544;2024-01-07T12:12:27;3.38;;;2.05;;
7529;SDS011;3806;52.270;10.544;2024-01-07T12:14:53;3.30;;;2.15;;
7529;SDS011;3806;52.270;10.544;2024-01-07T12:17:19;4.60;;;2.45;;
7529;SDS011;3806;52.270;10.544;2024-01-07T12:19:45;4.50;;;2.35;;
7529;SDS011;3806;52.270;10.544;2024-01-07T12:22:10;5.22;;;2.10;;
7529;SDS011;3806;52.270;10.544;2024-01-07T12:24:36;4.55;;;2.15;;
7529;SDS011;3806;52.270;10.544;2024-01-07T12:27:04;5.68;;;2.38;;
7529;SDS011;3806;52.270;10.544;2024-01-07T12:29:30;2.85;;;1.67;;
7529;SDS011;3806;52.270;10.544;2024-01-07T12:31:56;3.40;;;1.95;;
7529;SDS011;3806;52.270;10.544;2024-01-07T12:34:21;3.95;;;2.33;;
7529;SDS011;3806;52.270;10.544;2024-01-07T12:36:50;4.10;;;1.80;;
7529;SDS011;3806;52.270;10.544;2024-01-07T12:39:16;3.88;;;2.38;;
7529;SDS011;3806;52.270;10.544;2024-01-07T12:41:43;4.40;;;2.63;;
7529;SDS011;3806;52.270;10.544;2024-01-07T12:44:08;3.50;;;2.47;;
7529;SDS011;3806;52.270;10.544;2024-01-07T12:46:34;3.75;;;2.10;;
7529;SDS011;3806;52.270;10.544;2024-01-07T12:48:59;3.70;;;2.13;;
7529;SDS011;3806;52.270;10.544;2024-01-07T12:51:25;9.93;;;2.33;;
7529;SDS011;3806;52.270;10.544;2024-01-07T12:53:51;4.68;;;2.25;;
7529;SDS011;3806;52.270;10.544;2024-01-07T12:56:16;4.55;;;2.42;;
7529;SDS011;3806;52.270;10.544;2024-01-07T12:58:42;5.93;;;2.95;;
7529;SDS011;3806;52.270;10.544;2024-01-07T13:01:07;9.27;;;3.53;;
7529;SDS011;3806;52.270;10.544;2024-01-07T13:03:34;5.88;;;3.47;;
7529;SDS011;3806;52.270;10.544;2024-01-07T13:05:59;5.13;;;3.38;;
7529;SDS011;3806;52.270;10.544;2024-01-07T13:08:26;7.00;;;3.10;;
7529;SDS011;3806;52.270;10.544;2024-01-07T13:10:52;3.70;;;2.55;;
7529;SDS011;3806;52.270;10.544;2024-01-07T13:13:19;4.28;;;2.35;;
7529;SDS011;3806;52.270;10.544;2024-01-07T13:15:44;4.38;;;2.30;;
7529;SDS011;3806;52.270;10.544;2024-01-07T13:18:10;6.10;;;2.53;;
7529;SDS011;3806;52.270;10.544;2024-01-07T13:20:36;3.60;;;2.83;;
7529;SDS011;3806;52.270;10.544;2024-01-07T13:23:04;6.15;;;2.90;;
7529;SDS011;3806;52.270;10.544;2024-01-07T13:25:30;6.68;;;3.10;;
7529;SDS011;3806;52.270;10.544;2024-01-07T13:27:56;3.35;;;2.40;;
7529;SDS011;3806;52.270;10.544;2024-01-07T13:30:21;3.85;;;3.03;;
7529;SDS011;3806;52.270;10.544;2024-01-07T13:32:47;4.75;;;3.08;;
7529;SDS011;3806;52.270;10.544;2024-01-07T13:35:14;4.38;;;2.88;;
7529;SDS011;3806;52.270;10.544;2024-01-07T13:37:40;4.90;;;2.88;;
7529;SDS011;3806;52.270;10.544;2024-01-07T13:40:08;6.15;;;2.70;;
7529;SDS011;3806;52.270;10.544;2024-01-07T13:42:35;2.90;;;1.92;;
7529;SDS011;3806;52.270;10.544;2024-01-07T13:45:03;5.43;;;2.83;;
7529;SDS011;3806;52.270;10.544;2024-01-07T13:47:29;5.97;;;3.00;;
7529;SDS011;3806;52.270;10.544;2024-01-07T13:49:55;3.00;;;2.22;;
7529;SDS011;3806;52.270;10.544;2024-01-07T13:52:21;4.78;;;2.67;;
7529;SDS011;3806;52.270;10.544;2024-01-07T13:54:46;3.45;;;2.33;;
7529;SDS011;3806;52.270;10.544;2024-01-07T13:57:12;3.25;;;2.08;;
7529;SDS011;3806;52.270;10.544;2024-01-07T13:59:38;4.38;;;2.63;;
7529;SDS011;3806;52.270;10.544;2024-01-07T14:02:05;2.65;;;1.95;;
7529;SDS011;3806;52.270;10.544;2024-01-07T14:04:32;5.07;;;2.22;;
7529;SDS011;3806;52.270;10.544;2024-01-07T14:06:57;2.90;;;1.98;;
7529;SDS011;3806;52.270;10.544;2024-01-07T14:09:23;2.65;;;1.67;;
7529;SDS011;3806;52.270;10.544;2024-01-07T14:11:49;2.42;;;1.85;;
7529;SDS011;3806;52.270;10.544;2024-01-07T14:14:15;2.75;;;1.83;;
7529;SDS011;3806;52.270;10.544;2024-01-07T14:16:41;4.43;;;2.00;;
7529;SDS011;3806;52.270;10.544;2024-01-07T14:19:06;7.63;;;2.60;;
7529;SDS011;3806;52.270;10.544;2024-01-07T14:21:32;8.27;;;2.45;;
7529;SDS011;3806;52.270;10.544;2024-01-07T14:23:58;4.97;;;2.70;;
7529;SDS011;3806;52.270;10.544;2024-01-07T14:26:23;4.43;;;2.15;;
7529;SDS011;3806;52.270;10.544;2024-01-07T14:28:49;4.32;;;2.20;;
7529;SDS011;3806;52.270;10.544;2024-01-07T14:31:15;4.22;;;2.03;;
7529;SDS011;3806;52.270;10.544;2024-01-07T14:33:42;4.25;;;1.95;;
7529;SDS011;3806;52.270;10.544;2024-01-07T14:36:08;3.60;;;2.25;;
7529;SDS011;3806;52.270;10.544;2024-01-07T14:38:41;2.35;;;1.92;;
7529;SDS011;3806;52.270;10.544;2024-01-07T14:41:11;3.33;;;1.80;;
7529;SDS011;3806;52.270;10.544;2024-01-07T14:43:36;2.53;;;1.63;;
7529;SDS011;3806;52.270;10.544;2024-01-07T14:46:06;3.80;;;1.98;;
7529;SDS011;3806;52.270;10.544;2024-01-07T14:48:32;4.53;;;2.30;;
7529;SDS011;3806;52.270;10.544;2024-01-07T14:50:58;5.28;;;2.03;;
7529;SDS011;3806;52.270;10.544;2024-01-07T14:53:24;4.35;;;2.03;;
7529;SDS011;3806;52.270;10.544;2024-01-07T14:55:50;4.70;;;2.00;;
7529;SDS011;3806;52.270;10.544;2024-01-07T14:58:16;2.90;;;1.75;;
7529;SDS011;3806;52.270;10.544;2024-01-07T15:00:43;3.47;;;1.73;;
7529;SDS011;3806;52.270;10.544;2024-01-07T15:03:08;5.03;;;2.08;;